Time;durP1;ratioP1;P1;durP2;ratioP2;P2;SDS_P1;SDS_P2;PMS_P1;PMS_P2;Temp;Humidity;BMP_temperature;BMP_pressure;BME280_temperature;BME280_humidity;BME280_pressure;Samples;Min_cycle;Max_cycle;Signal;HPM_P1;HPM_P2
2022/09/09 00:01:16;;;;;;;5.32;1.90;;;14.10;99.90;;;;;;4414122;27;10000454;-77
2022/09/09 00:03:54;;;;;;;4.50;1.75;;;14.20;99.90;;;;;;5135943;27;20111;-78
2022/09/09 00:06:31;;;;;;;10.18;2.17;;;14.20;99.90;;;;;;5130558;27;20030;-77
2022/09/09 00:09:11;;;;;;;4.70;2.00;;;14.30;99.90;;;;;;5099644;27;20031;-78
2022/09/09 00:11:55;;;;;;;3.75;1.85;;;14.30;99.90;;;;;;5122067;27;20643;-77
2022/09/09 00:14:39;;;;;;;4.45;1.70;;;14.30;99.90;;;;;;5130086;27;20012;-78
2022/09/09 00:17:17;;;;;;;2.95;1.70;;;14.40;99.90;;;;;;5120860;27;20026;-77
2022/09/09 00:19:53;;;;;;;4.60;1.75;;;14.40;99.90;;;;;;5130488;27;20443;-78
2022/09/09 00:22:22;;;;;;;5.00;1.90;;;14.30;99.90;;;;;;5119624;27;20541;-78
2022/09/09 00:24:54;;;;;;;4.60;2.10;;;14.40;99.90;;;;;;5134056;27;20027;-78
2022/09/09 00:27:38;;;;;;;3.22;1.55;;;14.40;99.90;;;;;;5132871;27;20593;-78
2022/09/09 00:30:26;;;;;;;3.78;2.00;;;14.40;99.90;;;;;;5116930;27;20301;-78
2022/09/09 00:33:01;;;;;;;5.50;2.28;;;14.40;99.90;;;;;;5118121;27;20519;-78
2022/09/09 00:35:42;;;;;;;5.60;1.85;;;14.40;99.90;;;;;;5121768;27;20511;-78
2022/09/09 00:38:15;;;;;;;4.25;1.83;;;14.40;99.90;;;;;;5129858;27;20396;-78
2022/09/09 00:41:01;;;;;;;4.75;1.80;;;14.40;99.90;;;;;;5121767;27;20048;-78
2022/09/09 00:43:38;;;;;;;6.03;2.10;;;14.40;99.90;;;;;;5095195;27;20111;-78
2022/09/09 00:46:14;;;;;;;4.15;2.20;;;14.40;99.90;;;;;;5106511;27;20012;-78
2022/09/09 00:49:05;;;;;;;3.80;1.80;;;14.30;99.90;;;;;;5104673;27;20103;-78
2022/09/09 00:52:18;;;;;;;4.72;1.90;;;14.20;99.90;;;;;;5118878;27;20027;-78
2022/09/09 00:54:52;;;;;;;4.90;2.10;;;14.10;99.90;;;;;;5102850;28;20718;-78
2022/09/09 00:57:34;;;;;;;5.97;2.65;;;14.10;99.90;;;;;;5094127;28;20031;-78
2022/09/09 01:00:19;;;;;;;4.20;2.30;;;14.20;99.90;;;;;;5091676;28;20154;-78
2022/09/09 01:03:27;;;;;;;6.40;2.47;;;14.10;99.90;;;;;;5108917;28;20027;-77
2022/09/09 01:05:55;;;;;;;4.38;2.10;;;14.10;99.90;;;;;;5092037;28;20032;-78
2022/09/09 01:08:33;;;;;;;7.15;2.50;;;14.20;99.90;;;;;;5116025;28;20079;-77
2022/09/09 01:10:59;;;;;;;4.45;2.60;;;14.20;99.90;;;;;;5092847;28;20028;-78
2022/09/09 01:13:30;;;;;;;4.35;2.70;;;14.30;99.90;;;;;;5108904;27;20026;-78
2022/09/09 01:16:05;;;;;;;5.70;2.60;;;14.30;99.90;;;;;;5115363;27;20426;-78
2022/09/09 01:18:52;;;;;;;7.57;2.85;;;14.40;99.90;;;;;;5112568;27;20027;-78
2022/09/09 01:21:27;;;;;;;6.45;2.78;;;14.40;99.90;;;;;;5123914;27;20104;-79
2022/09/09 01:24:18;;;;;;;4.25;2.40;;;14.40;99.90;;;;;;5113349;27;20445;-79
2022/09/09 01:26:45;;;;;;;4.57;2.53;;;14.50;99.90;;;;;;5092692;27;20019;-79
2022/09/09 01:29:17;;;;;;;4.18;1.98;;;14.50;99.90;;;;;;5114150;27;20030;-79
2022/09/09 01:31:53;;;;;;;5.72;2.13;;;14.50;99.90;;;;;;5123255;27;20445;-79
2022/09/09 01:34:20;;;;;;;4.53;2.00;;;14.50;99.90;;;;;;5100958;27;20463;-79
2022/09/09 01:36:50;;;;;;;6.55;2.15;;;14.50;99.90;;;;;;5106779;27;20035;-79
2022/09/09 01:39:16;;;;;;;4.93;2.13;;;14.50;99.90;;;;;;5109600;27;20506;-79
2022/09/09 01:41:42;;;;;;;4.88;2.03;;;14.60;99.90;;;;;;5127610;27;20500;-79
2022/09/09 01:44:09;;;;;;;3.97;2.08;;;14.60;99.90;;;;;;5126182;27;20492;-79
2022/09/09 01:46:35;;;;;;;4.00;2.00;;;14.60;99.90;;;;;;5128077;27;20225;-79
2022/09/09 01:49:03;;;;;;;5.90;1.80;;;14.60;99.90;;;;;;5145883;27;20029;-79
2022/09/09 01:51:30;;;;;;;3.13;1.63;;;14.60;99.90;;;;;;5117001;27;20027;-79
2022/09/09 01:53:55;;;;;;;3.33;1.50;;;14.60;99.90;;;;;;5116136;27;20027;-79
2022/09/09 01:57:06;;;;;;;3.08;1.63;;;14.60;99.90;;;;;;5132340;27;20057;-79
2022/09/09 01:59:53;;;;;;;3.72;1.83;;;14.60;99.90;;;;;;5130877;27;20026;-79
2022/09/09 02:02:30;;;;;;;5.55;1.83;;;14.60;99.90;;;;;;5131081;27;20090;-78
2022/09/09 02:05:16;;;;;;;5.60;1.60;;;14.60;99.90;;;;;;5111734;27;20034;-79
2022/09/09 02:07:47;;;;;;;6.25;2.35;;;14.60;99.90;;;;;;5124809;27;20429;-79
2022/09/09 02:10:24;;;;;;;6.10;2.40;;;14.50;99.90;;;;;;5144294;27;20027;-78
2022/09/09 02:12:58;;;;;;;7.13;2.40;;;14.40;99.90;;;;;;5127095;27;20067;-78
2022/09/09 02:15:41;;;;;;;9.07;2.35;;;14.40;99.90;;;;;;5132000;27;20047;-79
2022/09/09 02:18:10;;;;;;;5.75;2.70;;;14.30;99.90;;;;;;5145263;27;20027;-78
2022/09/09 02:20:39;;;;;;;4.35;2.55;;;14.30;99.90;;;;;;5147720;27;20079;-79
2022/09/09 02:23:08;;;;;;;4.70;2.53;;;14.30;99.90;;;;;;5134899;27;20075;-78
2022/09/09 02:25:36;;;;;;;7.82;2.80;;;14.30;99.90;;;;;;5124432;27;20076;-78
2022/09/09 02:28:05;;;;;;;9.48;3.25;;;14.30;99.90;;;;;;5143419;27;20023;-78
2022/09/09 02:30:33;;;;;;;7.18;3.03;;;14.40;99.90;;;;;;5116943;27;20470;-78
2022/09/09 02:33:04;;;;;;;8.05;2.88;;;14.40;99.90;;;;;;5140947;27;20027;-78
2022/09/09 02:35:32;;;;;;;5.80;3.03;;;14.40;99.90;;;;;;5117988;27;20026;-78
2022/09/09 02:38:03;;;;;;;4.63;2.70;;;14.40;99.90;;;;;;5140794;27;20030;-78
2022/09/09 02:40:29;;;;;;;9.50;2.97;;;14.40;99.90;;;;;;5140889;27;20126;-78
2022/09/09 02:42:55;;;;;;;7.75;2.60;;;14.40;99.90;;;;;;5120925;27;20462;-78
2022/09/09 02:45:28;;;;;;;6.50;2.38;;;14.50;99.90;;;;;;5131434;27;20128;-78
2022/09/09 02:48:27;;;;;;;6.43;2.58;;;14.50;99.90;;;;;;5109141;27;20031;-78
2022/09/09 02:50:55;;;;;;;4.95;2.33;;;14.50;99.90;;;;;;5135356;27;20372;-78
2022/09/09 02:53:30;;;;;;;6.60;2.35;;;14.50;99.90;;;;;;5128474;27;20027;-78
2022/09/09 02:56:05;;;;;;;10.00;2.85;;;14.50;99.90;;;;;;5132472;27;20056;-78
2022/09/09 02:58:31;;;;;;;4.20;2.03;;;14.50;99.90;;;;;;5132960;27;20030;-79
2022/09/09 03:00:58;;;;;;;4.25;2.08;;;14.50;99.90;;;;;;5117476;27;20035;-78
2022/09/09 03:03:24;;;;;;;6.53;2.20;;;14.50;99.90;;;;;;5125621;27;20028;-79
2022/09/09 03:05:50;;;;;;;7.97;2.20;;;14.50;99.90;;;;;;5132138;27;20548;-78
2022/09/09 03:08:17;;;;;;;5.72;2.28;;;14.50;99.90;;;;;;5138423;27;20025;-78
2022/09/09 03:10:43;;;;;;;7.13;2.30;;;14.50;99.90;;;;;;5117522;27;20027;-79
2022/09/09 03:13:08;;;;;;;5.47;1.90;;;14.50;99.90;;;;;;5136532;27;20514;-79
2022/09/09 03:15:34;;;;;;;4.78;1.83;;;14.50;99.90;;;;;;5136030;27;20114;-79
2022/09/09 03:18:00;;;;;;;6.25;2.30;;;14.60;99.90;;;;;;5111896;27;20033;-78
2022/09/09 03:20:28;;;;;;;5.45;1.73;;;14.60;99.90;;;;;;5113734;27;20015;-78
2022/09/09 03:22:54;;;;;;;5.13;1.92;;;14.60;99.90;;;;;;5118259;27;20023;-78
2022/09/09 03:25:20;;;;;;;5.65;1.92;;;14.70;99.90;;;;;;5141824;27;20688;-78
2022/09/09 03:27:46;;;;;;;6.22;1.75;;;14.70;99.90;;;;;;5122209;27;20020;-79
2022/09/09 03:30:12;;;;;;;4.35;1.80;;;14.70;99.90;;;;;;5134204;27;20008;-78
2022/09/09 03:32:37;;;;;;;6.75;2.35;;;14.70;99.90;;;;;;5121625;27;20031;-79
2022/09/09 03:35:04;;;;;;;5.63;2.00;;;14.70;99.90;;;;;;5126295;27;20079;-78
2022/09/09 03:37:29;;;;;;;5.47;1.90;;;14.70;99.90;;;;;;5131733;27;20110;-79
2022/09/09 03:39:55;;;;;;;5.10;1.90;;;14.70;99.90;;;;;;5126981;27;20134;-78
2022/09/09 03:42:21;;;;;;;7.78;1.98;;;14.70;99.90;;;;;;5124513;27;20042;-79
2022/09/09 03:44:49;;;;;;;5.50;2.00;;;14.60;99.90;;;;;;5129074;27;20934;-79
2022/09/09 03:47:18;;;;;;;6.35;1.75;;;14.60;99.90;;;;;;5131902;27;20035;-79
2022/09/09 03:49:44;;;;;;;9.95;2.35;;;14.60;99.90;;;;;;5122451;27;20020;-79
2022/09/09 03:52:10;;;;;;;4.18;1.65;;;14.60;99.90;;;;;;5114269;27;20564;-79
2022/09/09 03:54:36;;;;;;;4.50;1.65;;;14.60;99.90;;;;;;5132190;27;20035;-79
2022/09/09 03:57:02;;;;;;;3.90;1.38;;;14.60;99.90;;;;;;5143209;27;20038;-79
2022/09/09 03:59:28;;;;;;;3.45;1.45;;;14.60;99.90;;;;;;5136388;27;20039;-79
2022/09/09 04:01:54;;;;;;;4.45;1.45;;;14.70;99.90;;;;;;5114000;27;20058;-78
2022/09/09 04:04:20;;;;;;;2.30;1.30;;;14.60;99.90;;;;;;5121141;27;20030;-79
2022/09/09 04:06:46;;;;;;;2.80;1.55;;;14.60;99.90;;;;;;5122031;27;20012;-79
2022/09/09 04:09:12;;;;;;;5.22;1.45;;;14.60;99.90;;;;;;5122409;27;20107;-78
2022/09/09 04:11:37;;;;;;;2.70;1.35;;;14.60;99.90;;;;;;5146577;27;20458;-79
2022/09/09 04:14:05;;;;;;;4.50;1.40;;;14.70;99.90;;;;;;5121722;27;20052;-79
2022/09/09 04:16:32;;;;;;;4.30;1.40;;;14.60;99.90;;;;;;5133513;27;20094;-79
2022/09/09 04:18:59;;;;;;;3.78;1.70;;;14.70;99.90;;;;;;5115456;27;20019;-79
2022/09/09 04:21:25;;;;;;;5.05;1.50;;;14.70;99.90;;;;;;5132494;27;20149;-79
2022/09/09 04:23:51;;;;;;;3.85;1.45;;;14.70;99.90;;;;;;5119773;27;20142;-79
2022/09/09 04:26:17;;;;;;;4.45;1.38;;;14.70;99.90;;;;;;5130769;27;20027;-79
2022/09/09 04:28:42;;;;;;;4.07;1.70;;;14.70;99.90;;;;;;5134107;27;20463;-79
2022/09/09 04:31:17;;;;;;;5.45;1.65;;;14.60;99.90;;;;;;5126871;27;20042;-79
2022/09/09 04:33:43;;;;;;;4.13;1.50;;;14.60;99.90;;;;;;5130286;27;20035;-78
2022/09/09 04:36:09;;;;;;;5.47;1.60;;;14.60;99.90;;;;;;5121439;27;20400;-79
2022/09/09 04:38:34;;;;;;;4.60;1.60;;;14.60;99.90;;;;;;5123912;27;20030;-79
2022/09/09 04:41:01;;;;;;;6.85;1.70;;;14.60;99.90;;;;;;5131279;27;20042;-78
2022/09/09 04:43:30;;;;;;;4.57;1.65;;;14.60;99.90;;;;;;5127080;27;20110;-78
2022/09/09 04:45:56;;;;;;;5.65;1.92;;;14.60;99.90;;;;;;5118683;27;20031;-78
2022/09/09 04:48:22;;;;;;;4.00;1.70;;;14.60;99.90;;;;;;5136392;27;20050;-78
2022/09/09 04:51:00;;;;;;;7.88;1.67;;;14.60;99.90;;;;;;5134813;27;20058;-78
2022/09/09 04:53:26;;;;;;;6.05;1.80;;;14.60;99.90;;;;;;5140620;27;20090;-79
2022/09/09 04:55:53;;;;;;;4.13;1.50;;;14.60;99.90;;;;;;5140832;27;20044;-81
2022/09/09 04:58:18;;;;;;;3.30;1.38;;;14.70;99.90;;;;;;5130298;27;20031;-81
2022/09/09 05:00:44;;;;;;;4.65;1.20;;;14.70;99.90;;;;;;5128252;27;20073;-78
2022/09/09 05:03:10;;;;;;;5.65;1.33;;;14.70;99.90;;;;;;5102222;27;20031;-79
2022/09/09 05:05:35;;;;;;;7.82;1.75;;;14.70;99.90;;;;;;5125425;27;20385;-79
2022/09/09 05:08:05;;;;;;;7.88;1.58;;;14.70;99.90;;;;;;5118026;27;20062;-79
2022/09/09 05:10:32;;;;;;;7.25;1.40;;;14.70;99.90;;;;;;5113929;27;20708;-79
2022/09/09 05:12:57;;;;;;;6.13;1.92;;;14.70;99.90;;;;;;5140579;27;20053;-78
2022/09/09 05:15:23;;;;;;;5.18;1.60;;;14.70;99.90;;;;;;5112915;27;20055;-79
2022/09/09 05:17:48;;;;;;;3.33;1.20;;;14.80;99.90;;;;;;5107870;28;20054;-78
2022/09/09 05:20:14;;;;;;;5.82;1.77;;;14.80;99.90;;;;;;5119895;27;20047;-79
2022/09/09 05:22:40;;;;;;;4.22;1.17;;;14.80;99.90;;;;;;5106497;28;20042;-78
2022/09/09 05:25:07;;;;;;;5.03;1.52;;;14.80;99.90;;;;;;5106100;28;20024;-78
2022/09/09 05:27:34;;;;;;;3.40;1.33;;;14.70;99.90;;;;;;5114565;28;20042;-78
2022/09/09 05:30:00;;;;;;;3.03;1.27;;;14.70;99.90;;;;;;5092306;28;20057;-79
2022/09/09 05:32:25;;;;;;;3.17;1.40;;;14.70;99.90;;;;;;5120872;27;20038;-78
2022/09/09 05:34:52;;;;;;;6.78;1.63;;;14.70;99.90;;;;;;5123556;27;20083;-79
2022/09/09 05:37:18;;;;;;;3.47;1.30;;;14.60;99.90;;;;;;5119047;27;20032;-79
2022/09/09 05:39:44;;;;;;;3.72;1.35;;;14.60;99.90;;;;;;5105809;28;20423;-79
2022/09/09 05:42:10;;;;;;;4.47;1.40;;;14.60;99.90;;;;;;5120849;27;20503;-78
2022/09/09 05:44:35;;;;;;;5.93;1.63;;;14.60;99.90;;;;;;5124087;27;20072;-79
2022/09/09 05:47:01;;;;;;;3.13;1.45;;;14.50;99.90;;;;;;5108329;28;20072;-78
2022/09/09 05:49:26;;;;;;;5.75;1.52;;;14.50;99.90;;;;;;5119333;28;20015;-79
2022/09/09 05:51:52;;;;;;;5.90;1.45;;;14.50;99.90;;;;;;5112075;27;20039;-78
2022/09/09 05:54:18;;;;;;;5.25;1.73;;;14.50;99.90;;;;;;5127522;27;20107;-78
2022/09/09 05:56:44;;;;;;;5.97;1.80;;;14.60;99.90;;;;;;5122519;27;20542;-78
2022/09/09 05:59:10;;;;;;;6.40;1.90;;;14.60;99.90;;;;;;5126577;27;20486;-78
2022/09/09 06:01:40;;;;;;;7.57;1.83;;;14.70;99.90;;;;;;5133163;27;21760;-79
2022/09/09 06:04:06;;;;;;;5.13;1.70;;;14.70;99.90;;;;;;5115288;27;20027;-78
2022/09/09 06:06:37;;;;;;;3.83;1.52;;;14.70;99.90;;;;;;5122816;27;20142;-78
2022/09/09 06:09:06;;;;;;;6.78;1.60;;;14.80;99.90;;;;;;5119404;27;20474;-78
2022/09/09 06:11:32;;;;;;;7.45;2.30;;;14.80;99.90;;;;;;5126843;27;20023;-78
2022/09/09 06:13:59;;;;;;;6.22;1.80;;;14.90;99.90;;;;;;5118457;27;20136;-79
2022/09/09 06:16:26;;;;;;;5.47;1.90;;;14.90;99.90;;;;;;5103347;27;20032;-78
2022/09/09 06:18:54;;;;;;;6.38;2.38;;;14.90;99.90;;;;;;5119061;27;20032;-79
2022/09/09 06:21:22;;;;;;;5.25;1.75;;;15.00;99.90;;;;;;5122596;27;20026;-78
2022/09/09 06:23:48;;;;;;;5.63;1.85;;;15.00;99.90;;;;;;5120511;27;20023;-79
2022/09/09 06:26:30;;;;;;;8.48;2.00;;;15.10;99.90;;;;;;5129974;27;20032;-78
2022/09/09 06:28:57;;;;;;;5.82;1.80;;;15.10;99.90;;;;;;5124078;27;20041;-79
2022/09/09 06:31:25;;;;;;;3.42;1.38;;;15.20;99.90;;;;;;5127310;27;20091;-78
2022/09/09 06:33:53;;;;;;;12.80;2.65;;;15.20;99.90;;;;;;5125987;27;20050;-79
2022/09/09 06:36:23;;;;;;;5.63;1.77;;;15.30;99.90;;;;;;5133390;27;20084;-79
2022/09/09 06:38:49;;;;;;;2.83;1.45;;;15.40;99.90;;;;;;5114555;27;20027;-78
2022/09/09 06:41:18;;;;;;;5.95;1.90;;;15.50;99.90;;;;;;5114595;27;20047;-79
2022/09/09 06:43:45;;;;;;;4.90;1.80;;;15.60;99.90;;;;;;5120004;27;20048;-78
2022/09/09 06:46:16;;;;;;;7.05;1.90;;;15.60;99.90;;;;;;5122789;27;20028;-78
2022/09/09 06:48:44;;;;;;;5.93;1.77;;;15.70;99.90;;;;;;5136456;27;20449;-79
2022/09/09 06:51:17;;;;;;;4.90;1.85;;;15.80;99.90;;;;;;5132549;27;20217;-78
2022/09/09 06:53:44;;;;;;;6.85;1.77;;;15.80;99.90;;;;;;5108855;27;20067;-79
2022/09/09 06:56:09;;;;;;;7.30;1.92;;;15.80;99.90;;;;;;5109687;27;20702;-78
2022/09/09 06:58:42;;;;;;;4.88;1.85;;;15.90;99.90;;;;;;5132827;27;20042;-78
2022/09/09 07:01:09;;;;;;;5.45;1.80;;;15.90;99.90;;;;;;5147466;27;20382;-79
2022/09/09 07:03:35;;;;;;;8.05;1.80;;;15.90;99.90;;;;;;5123728;27;20555;-79
2022/09/09 07:06:01;;;;;;;4.38;1.95;;;15.90;99.90;;;;;;5121958;27;20019;-79
2022/09/09 07:08:26;;;;;;;6.55;1.70;;;15.90;99.90;;;;;;5108400;28;20608;-78
2022/09/09 07:10:57;;;;;;;4.93;1.58;;;15.90;99.90;;;;;;5132170;27;20090;-79
2022/09/09 07:13:27;;;;;;;6.60;1.50;;;15.90;99.90;;;;;;5122100;27;20023;-77
2022/09/09 07:15:52;;;;;;;5.15;1.58;;;15.90;99.90;;;;;;5125146;27;20027;-79
2022/09/09 07:18:19;;;;;;;8.07;2.00;;;15.90;99.90;;;;;;5123298;27;20034;-79
2022/09/09 07:20:55;;;;;;;6.68;1.80;;;15.90;99.90;;;;;;5135714;27;20027;-79
2022/09/09 07:23:20;;;;;;;4.30;2.03;;;15.90;99.90;;;;;;5116247;27;20428;-79
2022/09/09 07:25:47;;;;;;;4.03;1.80;;;16.00;99.90;;;;;;5128315;27;20035;-78
2022/09/09 07:28:13;;;;;;;4.80;1.83;;;16.00;99.90;;;;;;5119635;27;20033;-79
2022/09/09 07:30:39;;;;;;;8.38;2.22;;;16.00;99.90;;;;;;5128129;27;20479;-79
2022/09/09 07:33:05;;;;;;;3.28;1.95;;;16.10;99.90;;;;;;5116459;27;20040;-79
2022/09/09 07:35:30;;;;;;;6.95;2.20;;;16.10;99.90;;;;;;5127363;27;20542;-79
2022/09/09 07:37:58;;;;;;;3.58;1.60;;;16.10;99.90;;;;;;5113952;27;20024;-79
2022/09/09 07:40:24;;;;;;;5.15;1.98;;;16.10;99.90;;;;;;5107369;28;20051;-79
2022/09/09 07:42:50;;;;;;;4.63;2.05;;;16.10;99.90;;;;;;5104880;27;20031;-79
2022/09/09 07:45:15;;;;;;;5.60;1.90;;;16.10;99.90;;;;;;5118855;27;20027;-77
2022/09/09 07:47:42;;;;;;;7.80;2.47;;;16.20;99.90;;;;;;5114838;27;20023;-77
2022/09/09 07:50:09;;;;;;;6.82;2.03;;;16.20;99.90;;;;;;5136020;27;20098;-76
2022/09/09 07:52:35;;;;;;;6.38;2.03;;;16.30;99.90;;;;;;5107594;27;20032;-77
2022/09/09 07:55:02;;;;;;;5.30;2.03;;;16.40;99.90;;;;;;5118543;27;20041;-77
2022/09/09 07:57:30;;;;;;;9.48;2.40;;;16.50;99.90;;;;;;5105510;27;20386;-77
2022/09/09 07:59:56;;;;;;;7.63;2.13;;;16.70;99.90;;;;;;5137730;27;20114;-80
2022/09/09 08:02:23;;;;;;;6.38;1.92;;;16.70;99.90;;;;;;4416164;27;10000630;-83
2022/09/09 08:04:49;;;;;;;9.15;2.28;;;16.80;99.90;;;;;;5120067;27;20032;-87
2022/09/09 08:07:16;;;;;;;7.40;2.25;;;16.80;99.90;;;;;;5127938;27;20132;-84
2022/09/09 08:09:41;;;;;;;6.57;1.77;;;16.80;99.90;;;;;;5112004;27;20036;-83
2022/09/09 08:12:08;;;;;;;7.65;1.80;;;16.80;99.90;;;;;;5121001;27;20115;-82
2022/09/09 08:14:33;;;;;;;9.60;2.08;;;16.80;99.90;;;;;;5119993;27;20103;-82
2022/09/09 08:16:59;;;;;;;5.45;1.90;;;16.90;99.90;;;;;;5110067;27;20110;-82
2022/09/09 08:19:25;;;;;;;9.57;2.08;;;16.90;99.90;;;;;;5130063;27;20505;-85
2022/09/09 08:21:50;;;;;;;5.78;1.60;;;17.00;99.90;;;;;;5120595;27;20035;-84
2022/09/09 08:24:16;;;;;;;7.82;1.77;;;17.20;99.90;;;;;;5115617;27;20027;-78
2022/09/09 08:26:45;;;;;;;6.68;1.80;;;17.40;99.90;;;;;;5136453;27;20699;-79
2022/09/09 08:29:12;;;;;;;6.57;1.77;;;17.60;99.90;;;;;;5106013;27;20019;-79
2022/09/09 08:31:42;;;;;;;5.32;1.67;;;17.70;99.90;;;;;;5135724;27;20083;-81
2022/09/09 08:34:08;;;;;;;5.50;1.63;;;17.80;99.90;;;;;;5131124;27;20533;-78
2022/09/09 08:36:37;;;;;;;3.97;1.60;;;17.90;99.90;;;;;;5103669;28;20038;-79
2022/09/09 08:39:06;;;;;;;4.55;1.27;;;17.90;99.90;;;;;;5121147;27;20520;-81
2022/09/09 08:41:48;;;;;;;5.85;1.73;;;18.00;99.90;;;;;;5101219;28;20119;-78
2022/09/09 08:44:29;;;;;;;9.82;1.60;;;18.20;99.90;;;;;;5111904;27;20042;-78
2022/09/09 08:47:24;;;;;;;5.18;1.95;;;18.40;99.90;;;;;;5137176;27;20078;-79
2022/09/09 08:50:08;;;;;;;3.55;1.30;;;18.60;99.90;;;;;;5122500;27;20683;-78
2022/09/09 08:52:45;;;;;;;6.85;1.33;;;18.80;99.90;;;;;;5130932;27;20091;-76
2022/09/09 08:55:21;;;;;;;3.92;1.50;;;18.90;99.90;;;;;;5126136;27;20038;-79
2022/09/09 08:57:49;;;;;;;7.93;1.52;;;19.00;99.90;;;;;;5115634;27;20100;-79
2022/09/09 09:00:14;;;;;;;10.05;1.58;;;19.00;99.90;;;;;;5123977;27;20031;-77
2022/09/09 09:03:05;;;;;;;7.85;1.55;;;18.90;99.90;;;;;;5113527;27;20676;-80
2022/09/09 09:05:50;;;;;;;3.47;1.30;;;18.90;99.90;;;;;;5106561;27;20114;-77
2022/09/09 09:08:33;;;;;;;7.88;1.38;;;19.00;99.90;;;;;;5103692;28;20031;-79
2022/09/09 09:11:00;;;;;;;8.07;1.40;;;19.30;99.90;;;;;;5115887;28;20035;-76
2022/09/09 09:14:09;;;;;;;5.80;1.50;;;19.40;99.90;;;;;;5113519;27;20676;-77
2022/09/09 09:17:22;;;;;;;7.55;1.52;;;19.40;99.90;;;;;;5048868;28;20032;-81
2022/09/09 09:19:51;;;;;;;8.43;1.50;;;19.70;99.90;;;;;;5053337;28;20043;-81
2022/09/09 09:22:22;;;;;;;8.88;1.60;;;19.80;99.90;;;;;;5110789;27;20052;-82
2022/09/09 09:24:55;;;;;;;8.43;1.27;;;19.70;99.90;;;;;;5111139;27;20406;-83
2022/09/09 09:27:34;;;;;;;6.15;1.23;;;19.90;99.90;;;;;;5133559;27;20042;-78
2022/09/09 09:30:12;;;;;;;7.47;1.35;;;20.10;99.90;;;;;;5120328;27;20069;-78
2022/09/09 09:32:40;;;;;;;5.72;1.60;;;20.40;99.90;;;;;;5123017;27;20111;-87
2022/09/09 09:35:12;;;;;;;6.72;1.15;;;20.50;99.90;;;;;;5125406;27;20031;-81
2022/09/09 09:37:39;;;;;;;6.20;1.20;;;20.30;99.90;;;;;;5134713;27;20031;-79
2022/09/09 09:40:10;;;;;;;5.20;1.38;;;20.20;99.90;;;;;;5141458;27;20071;-77
2022/09/09 09:42:37;;;;;;;6.07;1.63;;;20.00;99.90;;;;;;5137104;27;20047;-85
2022/09/09 09:45:36;;;;;;;4.88;1.38;;;19.80;99.90;;;;;;5126398;27;20025;-86
2022/09/09 09:48:09;;;;;;;6.80;1.25;;;19.60;99.90;;;;;;5099435;27;20031;-77
2022/09/09 09:50:40;;;;;;;7.35;1.20;;;19.40;99.90;;;;;;5131494;27;20027;-78
2022/09/09 09:53:19;;;;;;;4.55;1.35;;;19.20;99.90;;;;;;5121509;27;20031;-78
2022/09/09 09:55:54;;;;;;;6.55;1.40;;;19.00;99.90;;;;;;5139215;27;20741;-78
2022/09/09 09:58:20;;;;;;;5.00;1.10;;;19.00;99.90;;;;;;5137485;27;20521;-79
2022/09/09 10:00:51;;;;;;;5.85;1.30;;;19.20;99.90;;;;;;5136423;27;20068;-78
2022/09/09 10:03:23;;;;;;;7.15;1.55;;;19.30;99.90;;;;;;5119286;27;20051;-79
2022/09/09 10:05:48;;;;;;;5.40;1.20;;;19.30;99.90;;;;;;5119057;27;20031;-81
2022/09/09 10:08:17;;;;;;;5.00;1.10;;;19.60;99.90;;;;;;5120662;27;20029;-81
2022/09/09 10:10:59;;;;;;;5.93;1.30;;;19.90;99.90;;;;;;5133712;27;20179;-82
2022/09/09 10:14:02;;;;;;;4.10;0.98;;;20.20;99.90;;;;;;5122217;27;20035;-81
2022/09/09 10:16:49;;;;;;;6.80;1.70;;;20.20;99.90;;;;;;5127731;27;20019;-81
2022/09/09 10:19:35;;;;;;;5.07;1.00;;;20.20;99.90;;;;;;5133085;27;20031;-81
2022/09/09 10:22:19;;;;;;;5.85;0.98;;;20.30;99.90;;;;;;5132940;27;20038;-81
2022/09/09 10:25:05;;;;;;;4.05;1.00;;;20.40;99.90;;;;;;5122367;27;20180;-80
2022/09/09 10:27:53;;;;;;;3.05;0.80;;;20.50;99.90;;;;;;5133643;27;20439;-89
2022/09/09 10:30:32;;;;;;;6.10;1.00;;;20.70;99.90;;;;;;5116682;27;20037;-87
2022/09/09 10:33:19;;;;;;;7.50;1.00;;;21.00;99.90;;;;;;5112882;27;20594;-87
2022/09/09 10:36:14;;;;;;;5.05;1.20;;;21.00;99.90;;;;;;5130857;27;20068;-80
2022/09/09 10:38:47;;;;;;;5.57;1.20;;;20.90;99.90;;;;;;5098495;27;20606;-85
2022/09/09 10:41:15;;;;;;;5.22;1.27;;;20.70;99.90;;;;;;5133371;27;20062;-85
2022/09/09 10:44:27;;;;;;;7.78;1.40;;;20.60;99.90;;;;;;5131567;27;20029;-85
2022/09/09 10:47:03;;;;;;;2.25;0.90;;;20.60;99.90;;;;;;5108482;27;20602;-82
2022/09/09 10:49:58;;;;;;;5.72;1.35;;;20.50;99.90;;;;;;5138930;27;20458;-84
2022/09/09 10:52:50;;;;;;;6.60;1.30;;;20.50;99.90;;;;;;5137414;27;20031;-86
2022/09/09 10:55:19;;;;;;;3.47;1.15;;;20.80;99.90;;;;;;5118004;27;20027;-79
2022/09/09 10:57:51;;;;;;;4.72;0.95;;;20.90;99.90;;;;;;5139651;27;20058;-80
2022/09/09 11:00:23;;;;;;;3.83;0.93;;;21.10;99.90;;;;;;5131311;27;20087;-79
2022/09/09 11:02:56;;;;;;;4.32;1.13;;;21.40;99.90;;;;;;5112155;27;20042;-82
2022/09/09 11:05:28;;;;;;;4.88;1.20;;;21.40;99.90;;;;;;5118022;27;20038;-81
2022/09/09 11:08:08;;;;;;;4.18;0.90;;;21.50;99.90;;;;;;5123048;27;20031;-81
2022/09/09 11:10:43;;;;;;;3.33;1.00;;;21.50;99.90;;;;;;5121642;27;20110;-80
2022/09/09 11:13:31;;;;;;;4.28;1.10;;;21.40;99.90;;;;;;5112262;27;20022;-80
2022/09/09 11:16:06;;;;;;;4.75;1.00;;;21.40;99.90;;;;;;5121437;27;20262;-80
2022/09/09 11:18:38;;;;;;;5.07;0.93;;;21.20;99.90;;;;;;5118168;27;20024;-82
2022/09/09 11:21:17;;;;;;;4.45;1.08;;;21.00;99.90;;;;;;5114414;27;20604;-81
2022/09/09 11:23:46;;;;;;;4.93;1.13;;;20.80;99.90;;;;;;5133496;27;20482;-79
2022/09/09 11:26:18;;;;;;;6.40;1.20;;;20.60;99.90;;;;;;5120281;27;20034;-79
2022/09/09 11:29:28;;;;;;;6.88;1.10;;;20.40;99.90;;;;;;5121490;27;20031;-90
2022/09/09 11:32:02;;;;;;;4.25;1.30;;;20.20;99.90;;;;;;5105859;27;20035;-84
2022/09/09 11:34:51;;;;;;;10.75;1.40;;;19.90;99.90;;;;;;5118306;27;20070;-89
2022/09/09 11:37:26;;;;;;;10.90;1.23;;;19.70;99.90;;;;;;5135258;27;20105;-81
2022/09/09 11:40:17;;;;;;;6.82;1.10;;;19.40;99.90;;;;;;5125471;27;20470;-83
2022/09/09 11:42:43;;;;;;;6.20;1.50;;;19.30;99.90;;;;;;5112970;27;20043;-83
2022/09/09 11:45:20;;;;;;;5.95;1.40;;;19.30;99.90;;;;;;5114507;27;20038;-84
2022/09/09 11:47:54;;;;;;;2.78;1.15;;;19.30;99.90;;;;;;5108101;27;20102;-77
2022/09/09 11:50:19;;;;;;;4.88;1.20;;;19.20;99.90;;;;;;5136143;27;20026;-81
2022/09/09 11:52:48;;;;;;;5.15;1.42;;;19.40;99.90;;;;;;5127364;27;20010;-79
2022/09/09 11:55:27;;;;;;;7.28;1.45;;;19.50;99.90;;;;;;5121896;27;20615;-81
2022/09/09 11:58:13;;;;;;;6.30;1.40;;;19.80;99.90;;;;;;5122898;27;20631;-82
2022/09/09 12:00:45;;;;;;;4.75;1.15;;;19.90;99.90;;;;;;5130418;27;20050;-81
2022/09/09 12:03:45;;;;;;;7.68;1.33;;;19.90;99.90;;;;;;5119041;27;20448;-80
2022/09/09 12:06:33;;;;;;;4.15;0.95;;;19.80;99.90;;;;;;5121333;27;20034;-83
2022/09/09 12:09:17;;;;;;;4.32;1.00;;;19.60;99.90;;;;;;5118211;27;20031;-80
2022/09/09 12:11:43;;;;;;;7.50;0.88;;;19.50;99.90;;;;;;5134308;27;20105;-81
2022/09/09 12:14:39;;;;;;;3.63;0.80;;;19.40;99.90;;;;;;5120188;27;20110;-82
2022/09/09 12:17:22;;;;;;;3.15;0.68;;;19.30;99.90;;;;;;5074740;27;20046;-79
2022/09/09 12:20:03;;;;;;;6.65;1.00;;;19.20;99.90;;;;;;5108948;27;20038;-81
2022/09/09 12:22:53;;;;;;;3.53;1.02;;;19.10;99.90;;;;;;5128455;27;20039;-84
2022/09/09 12:26:07;;;;;;;3.63;1.00;;;19.10;99.90;;;;;;5124664;27;20039;-78
2022/09/09 12:28:32;;;;;;;7.18;0.70;;;18.90;99.90;;;;;;5006956;28;20022;-81
2022/09/09 12:31:17;;;;;;;5.97;0.77;;;18.80;99.90;;;;;;5115354;27;20505;-84
2022/09/09 12:33:45;;;;;;;5.53;1.08;;;18.60;99.90;;;;;;5139233;27;20611;-88
2022/09/09 12:36:15;;;;;;;4.93;0.90;;;18.40;99.90;;;;;;5119773;27;21006;-76
2022/09/09 12:38:42;;;;;;;2.08;0.55;;;18.30;99.90;;;;;;5119560;27;20050;-76
2022/09/09 12:41:23;;;;;;;2.58;0.73;;;18.30;99.90;;;;;;5129354;27;20039;-76
2022/09/09 12:43:50;;;;;;;2.85;0.57;;;18.30;99.90;;;;;;5122461;27;20023;-80
2022/09/09 12:46:38;;;;;;;2.53;0.65;;;18.60;99.90;;;;;;5124133;27;20046;-84
2022/09/09 12:49:04;;;;;;;2.67;0.70;;;18.90;99.90;;;;;;5109024;27;20477;-85
2022/09/09 12:51:32;;;;;;;3.60;0.57;;;19.20;99.90;;;;;;5126754;27;20019;-85
2022/09/09 12:53:59;;;;;;;3.08;0.70;;;19.40;99.90;;;;;;5111730;27;20034;-84
2022/09/09 12:56:30;;;;;;;1.98;0.60;;;19.50;99.90;;;;;;5118382;27;20030;-83
2022/09/09 12:58:58;;;;;;;1.92;0.50;;;19.70;99.90;;;;;;5125074;27;20027;-76
2022/09/09 13:01:26;;;;;;;3.78;0.70;;;19.80;99.90;;;;;;5109343;27;20027;-77
2022/09/09 13:03:52;;;;;;;3.08;0.70;;;20.00;99.90;;;;;;5131388;27;20494;-84
2022/09/09 13:06:24;;;;;;;2.95;0.70;;;20.10;99.90;;;;;;5122881;27;20026;-83
2022/09/09 13:08:51;;;;;;;5.13;0.70;;;20.50;99.90;;;;;;5120908;27;20398;-87
2022/09/09 13:11:26;;;;;;;5.07;1.00;;;20.80;99.90;;;;;;5125168;27;20076;-82
2022/09/09 13:13:55;;;;;;;3.53;0.70;;;21.10;99.90;;;;;;5128926;27;20030;-80